sensor_id;sensor_type;location;lat;lon;timestamp;temperature;humidity
63445;DHT22;49573;47.682;9.170;2022-11-15T00:00:49;7.60;91.20
63445;DHT22;49573;47.682;9.170;2022-11-15T00:03:35;7.60;91.20
63445;DHT22;49573;47.682;9.170;2022-11-15T00:06:21;7.70;91.00
63445;DHT22;49573;47.682;9.170;2022-11-15T00:09:07;7.60;91.00
63445;DHT22;49573;47.682;9.170;2022-11-15T00:11:53;7.50;91.00
63445;DHT22;49573;47.682;9.170;2022-11-15T00:14:41;7.60;91.20
63445;DHT22;49573;47.682;9.170;2022-11-15T00:17:27;7.60;91.20
63445;DHT22;49573;47.682;9.170;2022-11-15T00:20:13;7.50;91.20
63445;DHT22;49573;47.682;9.170;2022-11-15T00:22:59;7.60;91.20
63445;DHT22;49573;47.682;9.170;2022-11-15T00:25:45;7.60;91.20
63445;DHT22;49573;47.682;9.170;2022-11-15T00:28:31;7.60;91.00
63445;DHT22;49573;47.682;9.170;2022-11-15T00:31:19;7.50;91.20
63445;DHT22;49573;47.682;9.170;2022-11-15T00:34:05;7.50;91.20
63445;DHT22;49573;47.682;9.170;2022-11-15T00:36:51;7.50;91.40
63445;DHT22;49573;47.682;9.170;2022-11-15T00:39:37;7.50;91.30
63445;DHT22;49573;47.682;9.170;2022-11-15T00:42:23;7.50;91.40
63445;DHT22;49573;47.682;9.170;2022-11-15T00:45:09;7.50;91.60
63445;DHT22;49573;47.682;9.170;2022-11-15T00:47:57;7.50;91.70
63445;DHT22;49573;47.682;9.170;2022-11-15T00:50:43;7.50;91.40
63445;DHT22;49573;47.682;9.170;2022-11-15T00:53:29;7.60;91.50
63445;DHT22;49573;47.682;9.170;2022-11-15T00:56:15;7.60;91.40
63445;DHT22;49573;47.682;9.170;2022-11-15T00:59:01;7.60;91.10
63445;DHT22;49573;47.682;9.170;2022-11-15T01:01:47;7.60;91.30
63445;DHT22;49573;47.682;9.170;2022-11-15T01:04:35;7.50;91.40
63445;DHT22;49573;47.682;9.170;2022-11-15T01:07:21;7.60;91.50
63445;DHT22;49573;47.682;9.170;2022-11-15T01:10:08;7.60;91.50
63445;DHT22;49573;47.682;9.170;2022-11-15T01:12:54;7.50;91.30
63445;DHT22;49573;47.682;9.170;2022-11-15T01:15:40;7.50;91.10
63445;DHT22;49573;47.682;9.170;2022-11-15T01:18:27;7.50;91.40
63445;DHT22;49573;47.682;9.170;2022-11-15T01:21:16;7.40;91.20
63445;DHT22;49573;47.682;9.170;2022-11-15T01:24:03;7.40;91.20
63445;DHT22;49573;47.682;9.170;2022-11-15T01:26:49;7.40;91.20
63445;DHT22;49573;47.682;9.170;2022-11-15T01:29:35;7.40;91.30
63445;DHT22;49573;47.682;9.170;2022-11-15T01:32:21;7.30;91.10
63445;DHT22;49573;47.682;9.170;2022-11-15T01:35:07;7.40;91.10
63445;DHT22;49573;47.682;9.170;2022-11-15T01:37:55;7.30;90.80
63445;DHT22;49573;47.682;9.170;2022-11-15T01:40:41;7.30;90.90
63445;DHT22;49573;47.682;9.170;2022-11-15T01:43:29;7.30;91.00
63445;DHT22;49573;47.682;9.170;2022-11-15T01:46:23;7.20;90.60
63445;DHT22;49573;47.682;9.170;2022-11-15T01:49:14;7.20;90.60
63445;DHT22;49573;47.682;9.170;2022-11-15T01:52:05;7.20;90.80
63445;DHT22;49573;47.682;9.170;2022-11-15T01:54:57;7.20;90.90
63445;DHT22;49573;47.682;9.170;2022-11-15T01:57:47;7.20;90.80
63445;DHT22;49573;47.682;9.170;2022-11-15T02:00:34;7.20;90.60
63445;DHT22;49573;47.682;9.170;2022-11-15T02:03:23;7.20;90.30
63445;DHT22;49573;47.682;9.170;2022-11-15T02:06:12;7.20;90.50
63445;DHT22;49573;47.682;9.170;2022-11-15T02:08:59;7.10;90.50
63445;DHT22;49573;47.682;9.170;2022-11-15T02:11:47;7.10;90.60
63445;DHT22;49573;47.682;9.170;2022-11-15T02:14:36;7.10;90.50
63445;DHT22;49573;47.682;9.170;2022-11-15T02:17:34;7.10;90.30
63445;DHT22;49573;47.682;9.170;2022-11-15T02:20:41;7.10;90.20
63445;DHT22;49573;47.682;9.170;2022-11-15T02:30:24;7.00;90.80
63445;DHT22;49573;47.682;9.170;2022-11-15T02:33:20;7.00;90.80
63445;DHT22;49573;47.682;9.170;2022-11-15T02:36:11;7.00;90.90
63445;DHT22;49573;47.682;9.170;2022-11-15T02:39:03;7.00;90.60
63445;DHT22;49573;47.682;9.170;2022-11-15T02:41:54;7.00;90.20
63445;DHT22;49573;47.682;9.170;2022-11-15T02:44:45;6.90;89.80
63445;DHT22;49573;47.682;9.170;2022-11-15T02:47:35;6.90;90.50
63445;DHT22;49573;47.682;9.170;2022-11-15T02:50:25;6.90;90.80
63445;DHT22;49573;47.682;9.170;2022-11-15T02:53:14;6.90;90.40
63445;DHT22;49573;47.682;9.170;2022-11-15T02:56:00;6.80;90.40
63445;DHT22;49573;47.682;9.170;2022-11-15T02:59:00;6.90;90.80
63445;DHT22;49573;47.682;9.170;2022-11-15T03:02:01;7.00;90.80
63445;DHT22;49573;47.682;9.170;2022-11-15T03:04:54;6.90;90.50
63445;DHT22;49573;47.682;9.170;2022-11-15T03:07:46;6.80;90.70
63445;DHT22;49573;47.682;9.170;2022-11-15T03:10:43;6.80;91.00
63445;DHT22;49573;47.682;9.170;2022-11-15T03:13:35;6.90;91.10
63445;DHT22;49573;47.682;9.170;2022-11-15T03:16:26;6.90;91.10
63445;DHT22;49573;47.682;9.170;2022-11-15T03:19:17;6.90;90.90
63445;DHT22;49573;47.682;9.170;2022-11-15T03:22:10;6.90;90.70
63445;DHT22;49573;47.682;9.170;2022-11-15T03:25:00;6.90;90.90
63445;DHT22;49573;47.682;9.170;2022-11-15T03:27:50;6.90;90.90
63445;DHT22;49573;47.682;9.170;2022-11-15T03:30:38;6.90;90.80
63445;DHT22;49573;47.682;9.170;2022-11-15T03:33:26;7.00;90.80
63445;DHT22;49573;47.682;9.170;2022-11-15T03:36:13;7.00;90.80
63445;DHT22;49573;47.682;9.170;2022-11-15T03:39:04;7.00;90.70
63445;DHT22;49573;47.682;9.170;2022-11-15T03:41:56;7.00;90.90
63445;DHT22;49573;47.682;9.170;2022-11-15T03:44:48;7.00;90.90
63445;DHT22;49573;47.682;9.170;2022-11-15T03:47:40;7.00;90.80
63445;DHT22;49573;47.682;9.170;2022-11-15T03:50:28;6.90;90.90
63445;DHT22;49573;47.682;9.170;2022-11-15T03:53:15;6.90;91.00
63445;DHT22;49573;47.682;9.170;2022-11-15T03:56:03;7.00;90.90
63445;DHT22;49573;47.682;9.170;2022-11-15T03:58:49;7.00;91.00
63445;DHT22;49573;47.682;9.170;2022-11-15T04:01:35;7.00;91.00
63445;DHT22;49573;47.682;9.170;2022-11-15T04:04:21;7.00;91.00
63445;DHT22;49573;47.682;9.170;2022-11-15T04:07:07;7.00;90.80
63445;DHT22;49573;47.682;9.170;2022-11-15T04:09:53;7.00;90.80
63445;DHT22;49573;47.682;9.170;2022-11-15T04:12:50;7.00;90.90
63445;DHT22;49573;47.682;9.170;2022-11-15T04:15:36;7.00;90.90
63445;DHT22;49573;47.682;9.170;2022-11-15T04:18:22;7.00;91.00
63445;DHT22;49573;47.682;9.170;2022-11-15T04:21:10;7.00;90.90
63445;DHT22;49573;47.682;9.170;2022-11-15T04:24:14;7.10;90.70
63445;DHT22;49573;47.682;9.170;2022-11-15T04:27:00;7.10;90.80
63445;DHT22;49573;47.682;9.170;2022-11-15T04:29:48;7.00;90.70
63445;DHT22;49573;47.682;9.170;2022-11-15T04:32:34;7.00;91.00
63445;DHT22;49573;47.682;9.170;2022-11-15T04:35:20;7.10;90.90
63445;DHT22;49573;47.682;9.170;2022-11-15T04:38:08;7.10;90.70
63445;DHT22;49573;47.682;9.170;2022-11-15T04:40:54;7.10;90.60
63445;DHT22;49573;47.682;9.170;2022-11-15T04:43:40;7.00;90.60
63445;DHT22;49573;47.682;9.170;2022-11-15T04:46:27;7.10;90.60
63445;DHT22;49573;47.682;9.170;2022-11-15T04:49:14;7.10;90.40
63445;DHT22;49573;47.682;9.170;2022-11-15T04:52:00;7.10;90.50
63445;DHT22;49573;47.682;9.170;2022-11-15T04:54:46;7.00;90.50
63445;DHT22;49573;47.682;9.170;2022-11-15T04:57:32;7.00;90.40
63445;DHT22;49573;47.682;9.170;2022-11-15T05:00:18;7.00;90.30
63445;DHT22;49573;47.682;9.170;2022-11-15T05:03:06;7.00;90.40
63445;DHT22;49573;47.682;9.170;2022-11-15T05:06:10;6.90;90.20
63445;DHT22;49573;47.682;9.170;2022-11-15T05:08:56;6.90;90.20
63445;DHT22;49573;47.682;9.170;2022-11-15T05:11:42;6.80;90.10
63445;DHT22;49573;47.682;9.170;2022-11-15T05:14:29;6.80;90.10
63445;DHT22;49573;47.682;9.170;2022-11-15T05:17:15;6.70;90.10
63445;DHT22;49573;47.682;9.170;2022-11-15T05:20:03;6.60;90.20
63445;DHT22;49573;47.682;9.170;2022-11-15T05:22:49;6.60;90.40
63445;DHT22;49573;47.682;9.170;2022-11-15T05:25:36;6.60;90.40
63445;DHT22;49573;47.682;9.170;2022-11-15T05:28:22;6.70;90.40
63445;DHT22;49573;47.682;9.170;2022-11-15T05:31:12;6.70;90.50
63445;DHT22;49573;47.682;9.170;2022-11-15T05:33:58;6.70;90.60
63445;DHT22;49573;47.682;9.170;2022-11-15T05:36:47;6.60;90.80
63445;DHT22;49573;47.682;9.170;2022-11-15T05:39:33;6.70;91.00
63445;DHT22;49573;47.682;9.170;2022-11-15T05:42:19;6.70;91.00
63445;DHT22;49573;47.682;9.170;2022-11-15T05:45:07;6.70;90.90
63445;DHT22;49573;47.682;9.170;2022-11-15T05:47:56;6.70;91.10
63445;DHT22;49573;47.682;9.170;2022-11-15T05:50:46;6.70;91.10
63445;DHT22;49573;47.682;9.170;2022-11-15T05:53:35;6.70;91.30
63445;DHT22;49573;47.682;9.170;2022-11-15T05:56:21;6.80;91.20
63445;DHT22;49573;47.682;9.170;2022-11-15T05:59:09;6.80;91.30
63445;DHT22;49573;47.682;9.170;2022-11-15T06:01:55;6.80;91.30
63445;DHT22;49573;47.682;9.170;2022-11-15T06:04:41;6.80;91.00
63445;DHT22;49573;47.682;9.170;2022-11-15T06:07:29;6.90;91.00
63445;DHT22;49573;47.682;9.170;2022-11-15T06:10:16;6.80;91.20
63445;DHT22;49573;47.682;9.170;2022-11-15T06:13:04;6.80;91.30
63445;DHT22;49573;47.682;9.170;2022-11-15T06:15:50;6.80;91.30
63445;DHT22;49573;47.682;9.170;2022-11-15T06:18:37;6.80;91.10
63445;DHT22;49573;47.682;9.170;2022-11-15T06:21:23;6.80;91.30
63445;DHT22;49573;47.682;9.170;2022-11-15T06:24:09;6.90;91.30
63445;DHT22;49573;47.682;9.170;2022-11-15T06:26:57;6.80;91.30
63445;DHT22;49573;47.682;9.170;2022-11-15T06:29:43;6.90;91.50
63445;DHT22;49573;47.682;9.170;2022-11-15T06:32:29;6.90;91.20
63445;DHT22;49573;47.682;9.170;2022-11-15T06:35:16;6.90;91.50
63445;DHT22;49573;47.682;9.170;2022-11-15T06:38:04;6.90;91.50
63445;DHT22;49573;47.682;9.170;2022-11-15T06:40:50;7.00;91.40
63445;DHT22;49573;47.682;9.170;2022-11-15T06:43:38;7.00;91.40
63445;DHT22;49573;47.682;9.170;2022-11-15T06:46:25;7.00;91.50
63445;DHT22;49573;47.682;9.170;2022-11-15T06:49:11;7.00;91.60
63445;DHT22;49573;47.682;9.170;2022-11-15T06:51:57;7.00;91.50
63445;DHT22;49573;47.682;9.170;2022-11-15T06:54:43;7.00;91.70
63445;DHT22;49573;47.682;9.170;2022-11-15T06:57:29;7.00;91.80
63445;DHT22;49573;47.682;9.170;2022-11-15T07:00:19;7.00;91.80
63445;DHT22;49573;47.682;9.170;2022-11-15T07:03:05;7.10;91.80
63445;DHT22;49573;47.682;9.170;2022-11-15T07:05:52;7.20;91.90
63445;DHT22;49573;47.682;9.170;2022-11-15T07:08:39;7.30;92.10
63445;DHT22;49573;47.682;9.170;2022-11-15T07:11:27;7.40;92.30
63445;DHT22;49573;47.682;9.170;2022-11-15T07:14:13;7.30;91.90
63445;DHT22;49573;47.682;9.170;2022-11-15T07:17:03;7.30;91.90
63445;DHT22;49573;47.682;9.170;2022-11-15T07:19:49;7.30;91.90
63445;DHT22;49573;47.682;9.170;2022-11-15T07:22:35;7.30;92.10
63445;DHT22;49573;47.682;9.170;2022-11-15T07:25:21;7.40;92.20
63445;DHT22;49573;47.682;9.170;2022-11-15T07:28:07;7.40;91.80
63445;DHT22;49573;47.682;9.170;2022-11-15T07:30:54;7.50;92.00
63445;DHT22;49573;47.682;9.170;2022-11-15T07:33:41;7.50;91.90
63445;DHT22;49573;47.682;9.170;2022-11-15T07:36:27;7.40;91.80
63445;DHT22;49573;47.682;9.170;2022-11-15T07:39:14;7.50;91.70
63445;DHT22;49573;47.682;9.170;2022-11-15T07:42:00;7.60;91.50
63445;DHT22;49573;47.682;9.170;2022-11-15T07:45:06;7.70;92.00
63445;DHT22;49573;47.682;9.170;2022-11-15T07:47:52;7.80;91.90
63445;DHT22;49573;47.682;9.170;2022-11-15T07:50:42;7.90;91.90
63445;DHT22;49573;47.682;9.170;2022-11-15T07:53:28;7.90;91.40
63445;DHT22;49573;47.682;9.170;2022-11-15T07:56:14;8.00;91.60
63445;DHT22;49573;47.682;9.170;2022-11-15T07:59:00;8.00;91.00
63445;DHT22;49573;47.682;9.170;2022-11-15T08:01:46;8.10;91.00
63445;DHT22;49573;47.682;9.170;2022-11-15T08:04:32;8.10;90.80
63445;DHT22;49573;47.682;9.170;2022-11-15T08:07:20;8.20;90.60
63445;DHT22;49573;47.682;9.170;2022-11-15T08:10:07;8.20;90.70
63445;DHT22;49573;47.682;9.170;2022-11-15T08:12:58;8.30;91.00
63445;DHT22;49573;47.682;9.170;2022-11-15T08:15:44;8.20;89.70
63445;DHT22;49573;47.682;9.170;2022-11-15T08:18:30;8.10;89.50
63445;DHT22;49573;47.682;9.170;2022-11-15T08:21:19;8.00;89.60
63445;DHT22;49573;47.682;9.170;2022-11-15T08:24:09;8.00;89.90
63445;DHT22;49573;47.682;9.170;2022-11-15T08:26:55;8.00;89.90
63445;DHT22;49573;47.682;9.170;2022-11-15T08:29:43;8.10;89.90
63445;DHT22;49573;47.682;9.170;2022-11-15T08:32:30;7.90;89.40
63445;DHT22;49573;47.682;9.170;2022-11-15T08:35:16;7.80;89.50
63445;DHT22;49573;47.682;9.170;2022-11-15T08:38:03;7.90;89.70
63445;DHT22;49573;47.682;9.170;2022-11-15T08:40:51;8.00;90.10
63445;DHT22;49573;47.682;9.170;2022-11-15T08:43:37;8.00;89.90
63445;DHT22;49573;47.682;9.170;2022-11-15T08:46:24;8.00;89.70
63445;DHT22;49573;47.682;9.170;2022-11-15T08:49:10;8.10;90.10
63445;DHT22;49573;47.682;9.170;2022-11-15T08:51:56;8.20;90.00
63445;DHT22;49573;47.682;9.170;2022-11-15T08:54:42;8.20;90.30
63445;DHT22;49573;47.682;9.170;2022-11-15T08:57:30;8.30;90.30
63445;DHT22;49573;47.682;9.170;2022-11-15T09:00:17;8.30;90.20
63445;DHT22;49573;47.682;9.170;2022-11-15T09:03:06;8.50;90.00
63445;DHT22;49573;47.682;9.170;2022-11-15T09:05:54;8.50;89.60
63445;DHT22;49573;47.682;9.170;2022-11-15T09:08:40;8.50;89.70
63445;DHT22;49573;47.682;9.170;2022-11-15T09:11:26;8.60;89.00
63445;DHT22;49573;47.682;9.170;2022-11-15T09:14:14;8.60;88.80
63445;DHT22;49573;47.682;9.170;2022-11-15T09:17:01;8.60;89.20
63445;DHT22;49573;47.682;9.170;2022-11-15T09:19:47;8.70;89.20
63445;DHT22;49573;47.682;9.170;2022-11-15T09:22:34;8.80;89.20
63445;DHT22;49573;47.682;9.170;2022-11-15T09:25:22;8.70;88.20
63445;DHT22;49573;47.682;9.170;2022-11-15T09:28:08;8.60;88.20
63445;DHT22;49573;47.682;9.170;2022-11-15T09:30:57;8.70;88.30
63445;DHT22;49573;47.682;9.170;2022-11-15T09:33:44;8.80;88.60
63445;DHT22;49573;47.682;9.170;2022-11-15T09:36:30;8.70;88.20
63445;DHT22;49573;47.682;9.170;2022-11-15T09:39:17;8.40;88.20
63445;DHT22;49573;47.682;9.170;2022-11-15T09:42:28;8.40;88.40
63445;DHT22;49573;47.682;9.170;2022-11-15T09:45:22;8.30;88.50
63445;DHT22;49573;47.682;9.170;2022-11-15T09:51:31;8.60;87.60
63445;DHT22;49573;47.682;9.170;2022-11-15T09:54:27;8.70;87.70
63445;DHT22;49573;47.682;9.170;2022-11-15T09:57:16;8.90;87.30
63445;DHT22;49573;47.682;9.170;2022-11-15T10:00:13;9.00;87.50
63445;DHT22;49573;47.682;9.170;2022-11-15T10:03:10;9.20;86.90
63445;DHT22;49573;47.682;9.170;2022-11-15T10:06:00;9.30;86.70
63445;DHT22;49573;47.682;9.170;2022-11-15T10:08:53;9.20;86.60
63445;DHT22;49573;47.682;9.170;2022-11-15T10:11:40;9.80;87.40
63445;DHT22;49573;47.682;9.170;2022-11-15T10:14:28;9.70;86.50
63445;DHT22;49573;47.682;9.170;2022-11-15T10:17:33;9.70;86.20
63445;DHT22;49573;47.682;9.170;2022-11-15T10:20:25;9.80;86.10
63445;DHT22;49573;47.682;9.170;2022-11-15T10:23:16;9.50;86.90
63445;DHT22;49573;47.682;9.170;2022-11-15T10:26:08;9.40;86.40
63445;DHT22;49573;47.682;9.170;2022-11-15T10:28:55;9.60;86.70
63445;DHT22;49573;47.682;9.170;2022-11-15T10:31:41;9.50;86.70
63445;DHT22;49573;47.682;9.170;2022-11-15T10:34:27;9.50;86.30
63445;DHT22;49573;47.682;9.170;2022-11-15T10:37:14;9.30;85.60
63445;DHT22;49573;47.682;9.170;2022-11-15T10:40:06;9.20;86.40
63445;DHT22;49573;47.682;9.170;2022-11-15T10:43:06;9.00;86.70
63445;DHT22;49573;47.682;9.170;2022-11-15T10:46:18;8.90;86.90
63445;DHT22;49573;47.682;9.170;2022-11-15T10:49:15;8.80;87.00
63445;DHT22;49573;47.682;9.170;2022-11-15T10:52:04;8.80;86.90
63445;DHT22;49573;47.682;9.170;2022-11-15T10:55:02;8.80;87.20
63445;DHT22;49573;47.682;9.170;2022-11-15T10:57:52;8.80;87.40
63445;DHT22;49573;47.682;9.170;2022-11-15T11:00:39;8.80;87.10
63445;DHT22;49573;47.682;9.170;2022-11-15T11:03:35;8.60;88.00
63445;DHT22;49573;47.682;9.170;2022-11-15T11:06:23;8.50;88.40
63445;DHT22;49573;47.682;9.170;2022-11-15T11:12:28;8.80;88.00
63445;DHT22;49573;47.682;9.170;2022-11-15T11:15:17;9.00;87.40
63445;DHT22;49573;47.682;9.170;2022-11-15T11:18:07;8.80;87.20
63445;DHT22;49573;47.682;9.170;2022-11-15T11:20:58;9.00;87.50
63445;DHT22;49573;47.682;9.170;2022-11-15T11:23:52;9.00;87.20
63445;DHT22;49573;47.682;9.170;2022-11-15T11:26:46;9.10;87.30
63445;DHT22;49573;47.682;9.170;2022-11-15T11:29:54;9.00;87.20
63445;DHT22;49573;47.682;9.170;2022-11-15T11:33:08;9.00;87.10
63445;DHT22;49573;47.682;9.170;2022-11-15T11:36:05;9.10;87.20
63445;DHT22;49573;47.682;9.170;2022-11-15T11:39:05;9.10;86.90
63445;DHT22;49573;47.682;9.170;2022-11-15T11:42:02;9.00;86.60
63445;DHT22;49573;47.682;9.170;2022-11-15T11:44:55;9.20;87.30
63445;DHT22;49573;47.682;9.170;2022-11-15T11:47:47;9.20;86.40
63445;DHT22;49573;47.682;9.170;2022-11-15T11:50:38;9.40;86.90
63445;DHT22;49573;47.682;9.170;2022-11-15T11:53:27;9.40;86.10
63445;DHT22;49573;47.682;9.170;2022-11-15T11:56:22;9.40;86.10
63445;DHT22;49573;47.682;9.170;2022-11-15T11:59:16;9.40;86.60
63445;DHT22;49573;47.682;9.170;2022-11-15T12:02:14;9.50;85.90
63445;DHT22;49573;47.682;9.170;2022-11-15T12:05:08;9.50;85.50
63445;DHT22;49573;47.682;9.170;2022-11-15T12:08:01;9.60;85.60
63445;DHT22;49573;47.682;9.170;2022-11-15T12:10:54;9.80;85.40
63445;DHT22;49573;47.682;9.170;2022-11-15T12:13:46;9.70;84.60
63445;DHT22;49573;47.682;9.170;2022-11-15T12:16:34;9.70;85.60
63445;DHT22;49573;47.682;9.170;2022-11-15T12:19:20;9.80;84.90
63445;DHT22;49573;47.682;9.170;2022-11-15T12:22:12;9.90;85.20
63445;DHT22;49573;47.682;9.170;2022-11-15T12:25:05;10.00;85.00
63445;DHT22;49573;47.682;9.170;2022-11-15T12:27:56;10.10;84.70
63445;DHT22;49573;47.682;9.170;2022-11-15T12:30:45;10.10;84.60
63445;DHT22;49573;47.682;9.170;2022-11-15T12:33:36;10.20;85.00
63445;DHT22;49573;47.682;9.170;2022-11-15T12:36:36;10.30;84.40
63445;DHT22;49573;47.682;9.170;2022-11-15T12:46:03;10.40;85.40
63445;DHT22;49573;47.682;9.170;2022-11-15T12:48:53;10.50;85.50
63445;DHT22;49573;47.682;9.170;2022-11-15T12:52:04;10.50;85.50
63445;DHT22;49573;47.682;9.170;2022-11-15T12:54:53;10.50;85.70
63445;DHT22;49573;47.682;9.170;2022-11-15T12:57:42;10.60;85.90
63445;DHT22;49573;47.682;9.170;2022-11-15T13:00:38;10.60;85.90
63445;DHT22;49573;47.682;9.170;2022-11-15T13:03:26;10.60;85.90
63445;DHT22;49573;47.682;9.170;2022-11-15T13:06:37;10.70;85.80
63445;DHT22;49573;47.682;9.170;2022-11-15T13:09:53;10.70;85.70
63445;DHT22;49573;47.682;9.170;2022-11-15T13:12:56;10.70;85.60
63445;DHT22;49573;47.682;9.170;2022-11-15T13:15:53;10.80;85.30
63445;DHT22;49573;47.682;9.170;2022-11-15T13:18:39;10.80;84.90
63445;DHT22;49573;47.682;9.170;2022-11-15T13:21:26;10.80;84.60
63445;DHT22;49573;47.682;9.170;2022-11-15T13:24:30;10.80;84.70
63445;DHT22;49573;47.682;9.170;2022-11-15T13:27:18;10.80;84.70
63445;DHT22;49573;47.682;9.170;2022-11-15T13:30:14;10.80;85.00
63445;DHT22;49573;47.682;9.170;2022-11-15T13:33:08;10.70;84.80
63445;DHT22;49573;47.682;9.170;2022-11-15T13:35:57;10.70;84.80
63445;DHT22;49573;47.682;9.170;2022-11-15T13:38:44;10.70;84.90
63445;DHT22;49573;47.682;9.170;2022-11-15T13:41:46;10.70;84.50
63445;DHT22;49573;47.682;9.170;2022-11-15T13:44:33;10.80;84.70
63445;DHT22;49573;47.682;9.170;2022-11-15T13:47:20;10.70;85.00
63445;DHT22;49573;47.682;9.170;2022-11-15T13:50:10;10.70;84.60
63445;DHT22;49573;47.682;9.170;2022-11-15T13:52:58;10.70;84.80
63445;DHT22;49573;47.682;9.170;2022-11-15T13:55:45;10.70;84.80
63445;DHT22;49573;47.682;9.170;2022-11-15T13:58:31;10.60;84.80
63445;DHT22;49573;47.682;9.170;2022-11-15T14:01:19;10.50;85.30
63445;DHT22;49573;47.682;9.170;2022-11-15T14:04:12;10.60;85.60
63445;DHT22;49573;47.682;9.170;2022-11-15T14:07:01;10.50;85.90
63445;DHT22;49573;47.682;9.170;2022-11-15T14:09:48;10.50;86.00
63445;DHT22;49573;47.682;9.170;2022-11-15T14:12:35;10.50;86.20
63445;DHT22;49573;47.682;9.170;2022-11-15T14:15:27;10.60;86.30
63445;DHT22;49573;47.682;9.170;2022-11-15T14:18:40;10.60;86.50
63445;DHT22;49573;47.682;9.170;2022-11-15T14:21:28;10.60;86.60
63445;DHT22;49573;47.682;9.170;2022-11-15T14:24:14;10.60;86.70
63445;DHT22;49573;47.682;9.170;2022-11-15T14:27:15;10.60;86.80
63445;DHT22;49573;47.682;9.170;2022-11-15T14:30:01;10.60;86.70
63445;DHT22;49573;47.682;9.170;2022-11-15T14:32:49;10.50;86.70
63445;DHT22;49573;47.682;9.170;2022-11-15T14:35:38;10.50;86.90
63445;DHT22;49573;47.682;9.170;2022-11-15T14:38:26;10.50;86.90
63445;DHT22;49573;47.682;9.170;2022-11-15T14:41:19;10.50;86.90
63445;DHT22;49573;47.682;9.170;2022-11-15T14:44:06;10.50;86.80
63445;DHT22;49573;47.682;9.170;2022-11-15T14:46:52;10.50;86.80
63445;DHT22;49573;47.682;9.170;2022-11-15T14:49:38;10.40;86.80
63445;DHT22;49573;47.682;9.170;2022-11-15T14:52:26;10.40;86.90
63445;DHT22;49573;47.682;9.170;2022-11-15T14:55:19;10.40;86.90
63445;DHT22;49573;47.682;9.170;2022-11-15T14:58:07;10.40;86.80
63445;DHT22;49573;47.682;9.170;2022-11-15T15:00:56;10.40;86.90
63445;DHT22;49573;47.682;9.170;2022-11-15T15:03:42;10.40;87.00
63445;DHT22;49573;47.682;9.170;2022-11-15T15:06:29;10.30;87.10
63445;DHT22;49573;47.682;9.170;2022-11-15T15:09:16;10.30;87.00
63445;DHT22;49573;47.682;9.170;2022-11-15T15:12:04;10.30;87.00
63445;DHT22;49573;47.682;9.170;2022-11-15T15:14:51;10.30;87.20
63445;DHT22;49573;47.682;9.170;2022-11-15T15:17:37;10.30;87.10
63445;DHT22;49573;47.682;9.170;2022-11-15T15:20:23;10.20;87.20
63445;DHT22;49573;47.682;9.170;2022-11-15T15:23:14;10.30;87.40
63445;DHT22;49573;47.682;9.170;2022-11-15T15:26:01;10.20;87.20
63445;DHT22;49573;47.682;9.170;2022-11-15T15:28:48;10.30;87.20
63445;DHT22;49573;47.682;9.170;2022-11-15T15:31:36;10.20;87.40
63445;DHT22;49573;47.682;9.170;2022-11-15T15:34:23;10.20;87.40
63445;DHT22;49573;47.682;9.170;2022-11-15T15:37:21;10.20;87.50
63445;DHT22;49573;47.682;9.170;2022-11-15T15:40:13;10.10;87.60
63445;DHT22;49573;47.682;9.170;2022-11-15T15:42:59;10.10;87.60
63445;DHT22;49573;47.682;9.170;2022-11-15T15:45:47;10.10;87.60
63445;DHT22;49573;47.682;9.170;2022-11-15T15:48:33;10.00;87.80
63445;DHT22;49573;47.682;9.170;2022-11-15T15:51:22;10.10;87.90
63445;DHT22;49573;47.682;9.170;2022-11-15T15:54:08;10.00;87.80
63445;DHT22;49573;47.682;9.170;2022-11-15T15:56:54;10.00;88.00
63445;DHT22;49573;47.682;9.170;2022-11-15T15:59:41;9.90;88.00
63445;DHT22;49573;47.682;9.170;2022-11-15T16:02:29;9.90;88.00
63445;DHT22;49573;47.682;9.170;2022-11-15T16:05:15;9.90;88.00
63445;DHT22;49573;47.682;9.170;2022-11-15T16:08:01;9.80;88.10
63445;DHT22;49573;47.682;9.170;2022-11-15T16:10:48;9.80;88.20
63445;DHT22;49573;47.682;9.170;2022-11-15T16:13:34;9.80;88.20
63445;DHT22;49573;47.682;9.170;2022-11-15T16:16:21;9.80;88.20
63445;DHT22;49573;47.682;9.170;2022-11-15T16:19:10;9.80;88.10
63445;DHT22;49573;47.682;9.170;2022-11-15T16:21:57;9.80;88.10
63445;DHT22;49573;47.682;9.170;2022-11-15T16:24:43;9.80;88.10
63445;DHT22;49573;47.682;9.170;2022-11-15T16:27:29;9.70;88.10
63445;DHT22;49573;47.682;9.170;2022-11-15T16:30:18;9.70;88.20
63445;DHT22;49573;47.682;9.170;2022-11-15T16:33:04;9.70;88.30
63445;DHT22;49573;47.682;9.170;2022-11-15T16:35:52;9.70;88.20
63445;DHT22;49573;47.682;9.170;2022-11-15T16:38:38;9.70;88.40
63445;DHT22;49573;47.682;9.170;2022-11-15T16:41:25;9.70;88.40
63445;DHT22;49573;47.682;9.170;2022-11-15T16:44:11;9.60;88.30
63445;DHT22;49573;47.682;9.170;2022-11-15T16:46:57;9.60;88.30
63445;DHT22;49573;47.682;9.170;2022-11-15T16:49:43;9.60;88.30
63445;DHT22;49573;47.682;9.170;2022-11-15T16:52:31;9.60;88.40
63445;DHT22;49573;47.682;9.170;2022-11-15T16:55:17;9.60;88.50
63445;DHT22;49573;47.682;9.170;2022-11-15T16:58:03;9.50;88.50
63445;DHT22;49573;47.682;9.170;2022-11-15T17:00:50;9.50;88.40
63445;DHT22;49573;47.682;9.170;2022-11-15T17:03:36;9.60;88.40
63445;DHT22;49573;47.682;9.170;2022-11-15T17:06:23;9.50;88.50
63445;DHT22;49573;47.682;9.170;2022-11-15T17:09:12;9.50;88.60
63445;DHT22;49573;47.682;9.170;2022-11-15T17:11:59;9.50;88.80
63445;DHT22;49573;47.682;9.170;2022-11-15T17:14:45;9.50;88.60
63445;DHT22;49573;47.682;9.170;2022-11-15T17:17:32;9.50;89.00
63445;DHT22;49573;47.682;9.170;2022-11-15T17:20:19;9.50;88.80
63445;DHT22;49573;47.682;9.170;2022-11-15T17:23:05;9.50;88.90
63445;DHT22;49573;47.682;9.170;2022-11-15T17:25:59;9.50;88.70
63445;DHT22;49573;47.682;9.170;2022-11-15T17:28:45;9.40;88.80
63445;DHT22;49573;47.682;9.170;2022-11-15T17:31:32;9.50;88.70
63445;DHT22;49573;47.682;9.170;2022-11-15T17:34:18;9.40;88.80
63445;DHT22;49573;47.682;9.170;2022-11-15T17:37:04;9.40;88.80
63445;DHT22;49573;47.682;9.170;2022-11-15T17:39:51;9.40;88.80
63445;DHT22;49573;47.682;9.170;2022-11-15T17:42:39;9.30;89.00
63445;DHT22;49573;47.682;9.170;2022-11-15T17:45:25;9.40;89.00
63445;DHT22;49573;47.682;9.170;2022-11-15T17:48:11;9.40;88.80
63445;DHT22;49573;47.682;9.170;2022-11-15T17:50:59;9.40;88.90
63445;DHT22;49573;47.682;9.170;2022-11-15T17:53:46;9.40;88.80
63445;DHT22;49573;47.682;9.170;2022-11-15T17:56:33;9.40;88.90
63445;DHT22;49573;47.682;9.170;2022-11-15T17:59:24;9.40;88.80
63445;DHT22;49573;47.682;9.170;2022-11-15T18:02:11;9.40;88.90
63445;DHT22;49573;47.682;9.170;2022-11-15T18:04:57;9.40;89.00
63445;DHT22;49573;47.682;9.170;2022-11-15T18:07:43;9.30;89.00
63445;DHT22;49573;47.682;9.170;2022-11-15T18:10:29;9.40;89.00
63445;DHT22;49573;47.682;9.170;2022-11-15T18:13:15;9.30;88.90
63445;DHT22;49573;47.682;9.170;2022-11-15T18:16:03;9.30;89.30
63445;DHT22;49573;47.682;9.170;2022-11-15T18:18:50;9.30;89.10
63445;DHT22;49573;47.682;9.170;2022-11-15T18:21:36;9.30;89.10